createdAt,value
2019-02-24T00:02:12.326Z,3.92
2019-02-24T00:06:17.643Z,4.00
2019-02-24T00:10:23.181Z,3.98
2019-02-24T00:14:28.916Z,3.72
2019-02-24T00:18:34.419Z,3.86
2019-02-24T00:22:39.896Z,4.00
2019-02-24T00:26:46.596Z,3.78
2019-02-24T00:30:52.333Z,3.41
2019-02-24T00:34:57.839Z,3.50
2019-02-24T00:39:05.696Z,3.48
2019-02-24T00:43:11.626Z,3.30
2019-02-24T00:47:16.994Z,3.41
2019-02-24T00:51:22.480Z,3.41
2019-02-24T00:55:27.907Z,3.37
2019-02-24T00:59:33.397Z,3.31
2019-02-24T01:03:39.295Z,3.59
2019-02-24T01:07:45.034Z,3.50
2019-02-24T01:11:50.528Z,3.55
2019-02-24T01:15:55.917Z,3.45
2019-02-24T01:20:01.388Z,3.37
2019-02-24T01:24:06.870Z,3.27
2019-02-24T01:28:12.493Z,3.37
2019-02-24T01:32:17.964Z,3.35
2019-02-24T01:36:23.404Z,3.18
2019-02-24T01:40:29.020Z,3.16
2019-02-24T01:44:34.463Z,3.28
2019-02-24T01:48:39.732Z,3.04
2019-02-24T01:52:45.185Z,2.92
2019-02-24T01:56:50.753Z,3.01
2019-02-24T02:00:56.288Z,3.15
2019-02-24T02:05:01.972Z,3.21
2019-02-24T02:09:08.210Z,2.99
2019-02-24T02:13:13.617Z,3.26
2019-02-24T02:17:19.077Z,2.89
2019-02-24T02:21:24.375Z,3.09
2019-02-24T02:25:29.846Z,2.95
2019-02-24T02:29:35.539Z,3.17
2019-02-24T02:33:41.512Z,3.09
2019-02-24T02:37:46.974Z,3.09
2019-02-24T02:41:52.489Z,2.97
2019-02-24T02:45:58.031Z,2.82
2019-02-24T02:50:03.520Z,2.79
2019-02-24T02:54:08.953Z,2.90
2019-02-24T02:58:14.403Z,2.72
2019-02-24T03:02:24.348Z,2.89
2019-02-24T03:06:35.355Z,2.74
2019-02-24T03:10:40.763Z,2.83
2019-02-24T03:14:46.356Z,2.86
2019-02-24T03:18:52.025Z,2.78
2019-02-24T03:22:57.530Z,3.03
2019-02-24T03:27:02.907Z,2.85
2019-02-24T03:31:08.282Z,2.84
2019-02-24T03:35:13.749Z,2.87
2019-02-24T03:39:19.135Z,2.93
2019-02-24T03:43:24.924Z,2.88
2019-02-24T03:47:30.435Z,2.82
2019-02-24T03:51:36.170Z,2.99
2019-02-24T03:55:41.852Z,2.68
2019-02-24T03:59:47.344Z,3.05
2019-02-24T04:03:52.777Z,2.68
2019-02-24T04:07:58.231Z,2.70
2019-02-24T04:12:03.697Z,2.72
2019-02-24T04:16:09.549Z,2.80
2019-02-24T04:20:14.958Z,2.73
2019-02-24T04:24:20.340Z,2.70
2019-02-24T04:28:26.017Z,2.70
2019-02-24T04:32:31.832Z,2.73
2019-02-24T04:36:37.520Z,2.69
2019-02-24T04:40:42.866Z,2.86
2019-02-24T04:44:48.331Z,2.67
2019-02-24T04:48:53.663Z,2.55
2019-02-24T04:52:59.088Z,2.71
2019-02-24T04:57:04.350Z,2.60
2019-02-24T05:01:10.157Z,2.55
2019-02-24T05:05:15.868Z,2.54
2019-02-24T05:09:21.314Z,2.53
2019-02-24T05:13:26.980Z,2.45
2019-02-24T05:17:32.377Z,2.54
2019-02-24T05:21:37.727Z,2.35
2019-02-24T05:25:43.191Z,2.47
2019-02-24T05:29:48.648Z,2.57
2019-02-24T05:33:54.097Z,2.32
2019-02-24T05:37:59.476Z,2.44
2019-02-24T05:42:04.939Z,2.23
2019-02-24T05:46:10.428Z,2.40
2019-02-24T05:50:15.857Z,2.52
2019-02-24T05:54:21.295Z,2.50
2019-02-24T05:58:26.586Z,2.50
2019-02-24T06:02:32.039Z,2.42
2019-02-24T06:06:37.390Z,2.61
2019-02-24T06:10:42.844Z,2.42
2019-02-24T06:14:48.129Z,2.52
2019-02-24T06:18:53.827Z,2.65
2019-02-24T06:22:59.243Z,2.67
2019-02-24T06:27:04.807Z,2.41
2019-02-24T06:31:10.338Z,2.43
2019-02-24T06:35:15.760Z,2.45
2019-02-24T06:39:21.178Z,2.34
2019-02-24T06:43:26.625Z,2.24
2019-02-24T06:47:32.431Z,2.24
2019-02-24T06:51:37.799Z,2.17
2019-02-24T06:55:43.237Z,2.35
2019-02-24T06:59:48.500Z,2.42
2019-02-24T07:03:54.675Z,2.52
2019-02-24T07:08:00.515Z,2.40
2019-02-24T07:12:06.406Z,2.56
2019-02-24T07:16:11.749Z,2.63
2019-02-24T07:20:17.567Z,2.65
2019-02-24T07:24:23.073Z,2.82
2019-02-24T07:28:28.533Z,2.83
2019-02-24T07:32:34.147Z,3.18
2019-02-24T07:36:39.436Z,3.24
2019-02-24T07:40:46.413Z,3.41
2019-02-24T07:44:51.891Z,3.60
2019-02-24T07:48:57.316Z,3.57
2019-02-24T07:53:02.671Z,3.91
2019-02-24T07:57:08.123Z,3.98
2019-02-24T08:01:13.525Z,4.39
2019-02-24T08:05:18.987Z,4.47
2019-02-24T08:09:24.964Z,4.82
2019-02-24T08:13:30.412Z,4.79
2019-02-24T08:17:35.748Z,5.18
2019-02-24T08:21:41.305Z,5.25
2019-02-24T08:25:47.018Z,5.38
2019-02-24T08:29:52.379Z,5.88
2019-02-24T08:33:57.720Z,5.61
2019-02-24T08:38:03.207Z,5.73
2019-02-24T08:42:08.635Z,6.23
2019-02-24T08:46:14.397Z,6.16
2019-02-24T08:50:19.777Z,6.49
2019-02-24T08:54:25.276Z,6.81
2019-02-24T08:58:30.804Z,6.67
2019-02-24T09:02:36.343Z,6.85
2019-02-24T09:06:42.025Z,7.15
2019-02-24T09:10:47.798Z,6.95
2019-02-24T09:14:54.029Z,7.78
2019-02-24T09:18:59.484Z,7.60
2019-02-24T09:23:05.294Z,7.77
2019-02-24T09:27:10.745Z,8.00
2019-02-24T09:31:16.495Z,8.08
2019-02-24T09:35:22.187Z,8.04
2019-02-24T09:39:28.208Z,8.21
2019-02-24T09:43:33.759Z,8.41
2019-02-24T09:47:46.434Z,8.00
2019-02-24T09:51:46.456Z,8.06
2019-02-24T09:55:51.895Z,8.72
2019-02-24T09:59:57.807Z,8.97
2019-02-24T10:04:03.565Z,8.56
2019-02-24T10:08:09.453Z,9.70
2019-02-24T10:12:15.331Z,9.43
2019-02-24T10:16:21.111Z,9.11
2019-02-24T10:20:27.044Z,9.56
2019-02-24T10:24:33.782Z,9.55
2019-02-24T10:28:39.628Z,9.04
2019-02-24T10:32:45.112Z,9.46
2019-02-24T10:36:50.918Z,10.36
2019-02-24T10:40:56.395Z,10.25
2019-02-24T10:45:02.014Z,10.67
2019-02-24T10:49:07.468Z,10.26
2019-02-24T10:53:13.044Z,10.58
2019-02-24T10:57:18.463Z,10.70
2019-02-24T11:01:29.760Z,10.55
2019-02-24T11:05:31.561Z,11.11
2019-02-24T11:09:37.470Z,10.72
2019-02-24T11:13:43.571Z,11.60
2019-02-24T11:17:49.236Z,11.05
2019-02-24T11:21:55.074Z,11.52
2019-02-24T11:26:00.858Z,11.90
2019-02-24T11:30:07.051Z,11.35
2019-02-24T11:34:12.945Z,11.72
2019-02-24T11:38:18.733Z,12.37
2019-02-24T11:42:24.182Z,11.94
2019-02-24T11:46:29.599Z,12.30
2019-02-24T11:50:35.044Z,12.47
2019-02-24T11:54:40.512Z,13.02
2019-02-24T11:58:45.980Z,12.48
2019-02-24T12:02:51.488Z,12.95
2019-02-24T12:06:57.038Z,13.44
2019-02-24T12:11:02.503Z,13.42
2019-02-24T12:15:09.543Z,13.96
2019-02-24T12:19:15.046Z,14.31
2019-02-24T12:23:21.112Z,14.94
2019-02-24T12:27:26.498Z,14.67
2019-02-24T12:31:31.950Z,14.93
2019-02-24T12:35:37.370Z,14.96
2019-02-24T12:39:42.979Z,15.90
2019-02-24T12:43:48.338Z,15.53
2019-02-24T12:47:53.815Z,18.22
2019-02-24T12:51:59.289Z,16.58
2019-02-24T12:56:04.740Z,18.50
2019-02-24T13:00:15.095Z,17.59
2019-02-24T13:04:20.679Z,17.70
2019-02-24T13:08:26.190Z,18.88
2019-02-24T13:12:31.695Z,19.61
2019-02-24T13:16:37.128Z,18.85
2019-02-24T13:20:42.528Z,17.62
2019-02-24T13:24:48.481Z,18.77
2019-02-24T13:28:53.861Z,18.57
2019-02-24T13:32:59.357Z,17.88
2019-02-24T13:37:04.817Z,16.26
2019-02-24T13:41:10.305Z,15.42
2019-02-24T13:45:16.265Z,17.37
2019-02-24T13:49:21.726Z,16.83
2019-02-24T13:53:27.139Z,16.13
2019-02-24T13:57:32.522Z,15.98
2019-02-24T14:01:38.224Z,16.12
2019-02-24T14:05:43.798Z,16.10
2019-02-24T14:09:49.249Z,15.84
2019-02-24T14:13:54.841Z,15.68
2019-02-24T14:18:00.265Z,15.58
2019-02-24T14:22:05.885Z,16.79
2019-02-24T14:26:11.906Z,16.65
2019-02-24T14:30:17.411Z,17.52
2019-02-24T14:34:23.131Z,16.71
2019-02-24T14:38:28.607Z,16.86
2019-02-24T14:42:34.054Z,18.55
2019-02-24T14:46:39.543Z,18.48
2019-02-24T14:50:45.008Z,18.95
2019-02-24T14:54:50.568Z,19.35
2019-02-24T14:59:01.809Z,19.94
2019-02-24T15:03:07.406Z,18.76
2019-02-24T15:07:12.941Z,19.15
2019-02-24T15:11:18.767Z,18.64
2019-02-24T15:15:32.416Z,19.55
2019-02-24T15:19:31.939Z,20.27
2019-02-24T15:23:37.388Z,18.61
2019-02-24T15:27:43.179Z,19.64
2019-02-24T15:31:48.558Z,19.67
2019-02-24T15:35:53.990Z,19.47
2019-02-24T15:39:59.442Z,20.15
2019-02-24T15:44:04.954Z,19.54
2019-02-24T15:48:10.523Z,19.19
2019-02-24T15:52:16.327Z,20.17
2019-02-24T15:56:21.788Z,19.75
2019-02-24T16:00:27.266Z,18.51
2019-02-24T16:04:33.001Z,18.91
2019-02-24T16:08:38.682Z,18.91
2019-02-24T16:12:44.138Z,18.50
2019-02-24T16:16:49.936Z,17.56
2019-02-24T16:20:55.390Z,17.01
2019-02-24T16:25:00.858Z,16.31
2019-02-24T16:29:06.603Z,15.56
2019-02-24T16:33:12.354Z,15.49
2019-02-24T16:37:18.175Z,15.28
2019-02-24T16:41:23.580Z,15.16
2019-02-24T16:45:29.078Z,14.79
2019-02-24T16:49:34.773Z,13.89
2019-02-24T16:53:40.236Z,13.64
2019-02-24T16:57:46.041Z,13.62
2019-02-24T17:01:54.552Z,12.94
2019-02-24T17:06:00.417Z,12.64
2019-02-24T17:10:06.489Z,12.53
2019-02-24T17:14:12.189Z,11.98
2019-02-24T17:18:19.568Z,11.77
2019-02-24T17:22:25.158Z,11.41
2019-02-24T17:26:31.102Z,11.09
2019-02-24T17:30:36.781Z,10.67
2019-02-24T17:34:44.673Z,10.45
2019-02-24T17:38:50.152Z,10.32
2019-02-24T17:42:55.622Z,10.12
2019-02-24T17:47:01.394Z,9.84
2019-02-24T17:51:06.824Z,9.73
2019-02-24T17:55:13.223Z,9.45
2019-02-24T17:59:18.600Z,9.30
2019-02-24T18:03:24.233Z,9.08
2019-02-24T18:07:29.726Z,9.02
2019-02-24T18:11:35.353Z,8.84
2019-02-24T18:15:41.272Z,8.58
2019-02-24T18:19:46.814Z,8.28
2019-02-24T18:23:56.515Z,8.17
2019-02-24T18:28:02.057Z,8.09
2019-02-24T18:32:07.498Z,7.86
2019-02-24T18:36:13.015Z,7.85
2019-02-24T18:40:18.490Z,7.68
2019-02-24T18:44:23.938Z,7.39
2019-02-24T18:48:29.496Z,7.26
2019-02-24T18:52:35.157Z,6.78
2019-02-24T18:56:40.737Z,7.06
2019-02-24T19:00:46.185Z,6.95
2019-02-24T19:04:52.061Z,6.80
2019-02-24T19:08:57.535Z,6.65
2019-02-24T19:13:03.050Z,6.63
2019-02-24T19:17:08.567Z,6.56
2019-02-24T19:21:14.053Z,6.49
2019-02-24T19:25:19.750Z,6.40
2019-02-24T19:29:25.224Z,6.28
2019-02-24T19:33:30.576Z,6.14
2019-02-24T19:37:35.998Z,5.98
2019-02-24T19:41:41.507Z,5.75
2019-02-24T19:45:47.002Z,5.90
2019-02-24T19:49:52.467Z,5.58
2019-02-24T19:53:58.097Z,5.69
2019-02-24T19:58:03.634Z,5.63
2019-02-24T20:02:09.531Z,5.54
2019-02-24T20:06:15.203Z,5.43
2019-02-24T20:10:21.984Z,5.40
2019-02-24T20:14:27.590Z,5.39
2019-02-24T20:18:33.061Z,5.17
2019-02-24T20:22:38.653Z,5.19
2019-02-24T20:26:45.693Z,5.26
2019-02-24T20:30:51.118Z,4.95
2019-02-24T20:34:56.521Z,4.99
2019-02-24T20:39:02.137Z,4.76
2019-02-24T20:43:07.694Z,4.76
2019-02-24T20:47:14.424Z,4.64
2019-02-24T20:51:20.882Z,4.63
2019-02-24T20:55:26.323Z,4.79
2019-02-24T20:59:32.046Z,4.56
2019-02-24T21:03:37.907Z,4.62
2019-02-24T21:07:43.877Z,4.31
2019-02-24T21:11:49.428Z,4.25
2019-02-24T21:15:54.942Z,4.13
2019-02-24T21:20:00.378Z,4.27
2019-02-24T21:24:05.854Z,4.05
2019-02-24T21:28:11.433Z,4.00
2019-02-24T21:32:16.899Z,3.89
2019-02-24T21:36:22.336Z,3.84
2019-02-24T21:40:27.798Z,3.85
2019-02-24T21:44:33.502Z,3.85
2019-02-24T21:48:39.331Z,3.78
2019-02-24T21:52:44.784Z,3.69
2019-02-24T21:56:51.514Z,3.69
2019-02-24T22:00:57.023Z,3.44
2019-02-24T22:05:02.495Z,3.41
2019-02-24T22:09:11.565Z,3.34
2019-02-24T22:13:17.014Z,3.36
2019-02-24T22:17:22.462Z,3.38
2019-02-24T22:21:27.988Z,3.26
2019-02-24T22:25:33.833Z,3.27
2019-02-24T22:29:39.529Z,3.19
2019-02-24T22:33:44.997Z,3.05
2019-02-24T22:37:50.532Z,3.13
2019-02-24T22:41:56.840Z,3.03
2019-02-24T22:46:03.157Z,2.95
2019-02-24T22:50:09.348Z,2.92
2019-02-24T22:54:14.846Z,3.00
2019-02-24T22:58:20.449Z,2.93
2019-02-24T23:02:26.034Z,2.87
2019-02-24T23:06:31.493Z,2.74
2019-02-24T23:10:37.023Z,2.59
2019-02-24T23:14:42.579Z,2.50
2019-02-24T23:18:48.360Z,2.43
2019-02-24T23:22:54.093Z,2.33
2019-02-24T23:26:59.530Z,2.34
2019-02-24T23:31:04.982Z,2.32
2019-02-24T23:35:10.564Z,2.18
2019-02-24T23:39:17.985Z,2.18
2019-02-24T23:43:23.428Z,2.04
2019-02-24T23:47:28.930Z,1.96
2019-02-24T23:51:34.771Z,1.91
2019-02-24T23:55:40.511Z,1.82
2019-02-24T23:59:46.231Z,1.79
